sensor_id;sensor_type;location;lat;lon;timestamp;P1;durP1;ratioP1;P2;durP2;ratioP2
2610;SDS011;5612;51.134;17.058;2023-07-13T00:00:16;7.03;;;6.50;;
2610;SDS011;5612;51.134;17.058;2023-07-13T00:02:46;8.53;;;5.77;;
2610;SDS011;5612;51.134;17.058;2023-07-13T00:05:14;6.13;;;5.53;;
2610;SDS011;5612;51.134;17.058;2023-07-13T00:07:44;6.10;;;5.50;;
2610;SDS011;5612;51.134;17.058;2023-07-13T00:10:13;6.40;;;5.90;;
2610;SDS011;5612;51.134;17.058;2023-07-13T00:12:42;6.13;;;5.63;;
2610;SDS011;5612;51.134;17.058;2023-07-13T00:15:12;5.63;;;5.03;;
2610;SDS011;5612;51.134;17.058;2023-07-13T00:17:44;5.83;;;5.33;;
2610;SDS011;5612;51.134;17.058;2023-07-13T00:20:13;9.67;;;6.30;;
2610;SDS011;5612;51.134;17.058;2023-07-13T00:22:42;8.10;;;6.37;;
2610;SDS011;5612;51.134;17.058;2023-07-13T00:25:11;7.07;;;6.37;;
2610;SDS011;5612;51.134;17.058;2023-07-13T00:27:43;8.73;;;5.00;;
2610;SDS011;5612;51.134;17.058;2023-07-13T00:30:15;5.70;;;5.20;;
2610;SDS011;5612;51.134;17.058;2023-07-13T00:32:45;7.67;;;5.67;;
2610;SDS011;5612;51.134;17.058;2023-07-13T00:35:15;6.50;;;5.90;;
2610;SDS011;5612;51.134;17.058;2023-07-13T00:37:44;5.90;;;5.40;;
2610;SDS011;5612;51.134;17.058;2023-07-13T00:40:13;7.50;;;5.87;;
2610;SDS011;5612;51.134;17.058;2023-07-13T00:42:44;6.73;;;6.10;;
2610;SDS011;5612;51.134;17.058;2023-07-13T00:48:20;5.90;;;5.40;;
2610;SDS011;5612;51.134;17.058;2023-07-13T00:50:53;8.27;;;6.20;;
2610;SDS011;5612;51.134;17.058;2023-07-13T00:53:24;8.17;;;6.40;;
2610;SDS011;5612;51.134;17.058;2023-07-13T00:55:54;7.40;;;6.80;;
2610;SDS011;5612;51.134;17.058;2023-07-13T00:58:26;6.63;;;6.13;;
2610;SDS011;5612;51.134;17.058;2023-07-13T01:00:56;6.77;;;6.27;;
2610;SDS011;5612;51.134;17.058;2023-07-13T01:03:26;7.43;;;6.83;;
2610;SDS011;5612;51.134;17.058;2023-07-13T01:05:55;8.17;;;7.40;;
2610;SDS011;5612;51.134;17.058;2023-07-13T01:08:24;7.20;;;6.60;;
2610;SDS011;5612;51.134;17.058;2023-07-13T01:10:54;7.40;;;6.80;;
2610;SDS011;5612;51.134;17.058;2023-07-13T01:13:25;7.60;;;6.80;;
2610;SDS011;5612;51.134;17.058;2023-07-13T01:16:03;8.80;;;7.90;;
2610;SDS011;5612;51.134;17.058;2023-07-13T01:18:41;7.23;;;6.53;;
2610;SDS011;5612;51.134;17.058;2023-07-13T01:21:11;7.30;;;5.67;;
2610;SDS011;5612;51.134;17.058;2023-07-13T01:23:40;7.23;;;6.73;;
2610;SDS011;5612;51.134;17.058;2023-07-13T01:26:11;7.50;;;6.80;;
2610;SDS011;5612;51.134;17.058;2023-07-13T01:28:40;7.97;;;7.13;;
2610;SDS011;5612;51.134;17.058;2023-07-13T01:31:09;7.77;;;7.10;;
2610;SDS011;5612;51.134;17.058;2023-07-13T01:33:39;7.90;;;7.27;;
2610;SDS011;5612;51.134;17.058;2023-07-13T01:36:08;7.63;;;6.27;;
2610;SDS011;5612;51.134;17.058;2023-07-13T01:38:40;7.53;;;6.83;;
2610;SDS011;5612;51.134;17.058;2023-07-13T01:41:10;8.97;;;8.07;;
2610;SDS011;5612;51.134;17.058;2023-07-13T01:43:39;7.30;;;6.60;;
2610;SDS011;5612;51.134;17.058;2023-07-13T01:46:08;8.80;;;7.57;;
2610;SDS011;5612;51.134;17.058;2023-07-13T01:48:49;7.10;;;6.53;;
2610;SDS011;5612;51.134;17.058;2023-07-13T01:51:19;7.90;;;7.10;;
2610;SDS011;5612;51.134;17.058;2023-07-13T01:53:50;8.00;;;7.30;;
2610;SDS011;5612;51.134;17.058;2023-07-13T01:56:18;8.70;;;7.97;;
2610;SDS011;5612;51.134;17.058;2023-07-13T01:58:47;8.00;;;7.20;;
2610;SDS011;5612;51.134;17.058;2023-07-13T02:01:16;8.20;;;7.23;;
2610;SDS011;5612;51.134;17.058;2023-07-13T02:03:45;9.27;;;7.70;;
2610;SDS011;5612;51.134;17.058;2023-07-13T02:06:14;7.70;;;7.00;;
2610;SDS011;5612;51.134;17.058;2023-07-13T02:08:43;7.67;;;6.97;;
2610;SDS011;5612;51.134;17.058;2023-07-13T02:11:13;7.47;;;6.93;;
2610;SDS011;5612;51.134;17.058;2023-07-13T02:13:42;9.30;;;7.03;;
2610;SDS011;5612;51.134;17.058;2023-07-13T02:16:11;7.83;;;7.03;;
2610;SDS011;5612;51.134;17.058;2023-07-13T02:18:41;8.40;;;7.60;;
2610;SDS011;5612;51.134;17.058;2023-07-13T02:21:09;8.57;;;7.87;;
2610;SDS011;5612;51.134;17.058;2023-07-13T02:23:38;8.57;;;6.83;;
2610;SDS011;5612;51.134;17.058;2023-07-13T02:26:07;8.20;;;7.60;;
2610;SDS011;5612;51.134;17.058;2023-07-13T02:28:37;8.17;;;7.57;;
2610;SDS011;5612;51.134;17.058;2023-07-13T02:31:07;7.97;;;7.17;;
2610;SDS011;5612;51.134;17.058;2023-07-13T02:33:36;8.13;;;7.33;;
2610;SDS011;5612;51.134;17.058;2023-07-13T02:36:05;8.57;;;7.87;;
2610;SDS011;5612;51.134;17.058;2023-07-13T02:38:35;8.83;;;8.03;;
2610;SDS011;5612;51.134;17.058;2023-07-13T02:41:05;9.80;;;8.37;;
2610;SDS011;5612;51.134;17.058;2023-07-13T02:43:35;9.37;;;8.57;;
2610;SDS011;5612;51.134;17.058;2023-07-13T02:46:05;8.23;;;7.63;;
2610;SDS011;5612;51.134;17.058;2023-07-13T02:48:35;8.77;;;7.93;;
2610;SDS011;5612;51.134;17.058;2023-07-13T02:51:06;8.87;;;8.07;;
2610;SDS011;5612;51.134;17.058;2023-07-13T02:53:35;9.37;;;7.77;;
2610;SDS011;5612;51.134;17.058;2023-07-13T02:56:05;9.37;;;8.47;;
2610;SDS011;5612;51.134;17.058;2023-07-13T02:58:34;9.20;;;8.37;;
2610;SDS011;5612;51.134;17.058;2023-07-13T03:01:07;9.13;;;8.20;;
2610;SDS011;5612;51.134;17.058;2023-07-13T03:03:37;9.53;;;8.60;;
2610;SDS011;5612;51.134;17.058;2023-07-13T03:06:06;8.73;;;7.93;;
2610;SDS011;5612;51.134;17.058;2023-07-13T03:08:36;9.63;;;8.70;;
2610;SDS011;5612;51.134;17.058;2023-07-13T03:11:05;9.00;;;8.30;;
2610;SDS011;5612;51.134;17.058;2023-07-13T03:13:35;8.63;;;7.93;;
2610;SDS011;5612;51.134;17.058;2023-07-13T03:16:04;10.43;;;8.57;;
2610;SDS011;5612;51.134;17.058;2023-07-13T03:18:36;8.90;;;8.00;;
2610;SDS011;5612;51.134;17.058;2023-07-13T03:21:04;9.07;;;8.27;;
2610;SDS011;5612;51.134;17.058;2023-07-13T03:23:33;9.43;;;8.47;;
2610;SDS011;5612;51.134;17.058;2023-07-13T03:26:03;8.77;;;8.07;;
2610;SDS011;5612;51.134;17.058;2023-07-13T03:28:33;9.20;;;8.30;;
2610;SDS011;5612;51.134;17.058;2023-07-13T03:31:03;8.97;;;8.17;;
2610;SDS011;5612;51.134;17.058;2023-07-13T03:33:36;11.43;;;9.30;;
2610;SDS011;5612;51.134;17.058;2023-07-13T03:36:06;7.77;;;7.17;;
2610;SDS011;5612;51.134;17.058;2023-07-13T03:38:36;10.63;;;8.30;;
2610;SDS011;5612;51.134;17.058;2023-07-13T03:41:05;9.80;;;8.80;;
2610;SDS011;5612;51.134;17.058;2023-07-13T03:43:34;9.13;;;7.53;;
2610;SDS011;5612;51.134;17.058;2023-07-13T03:46:02;10.07;;;8.73;;
2610;SDS011;5612;51.134;17.058;2023-07-13T03:48:31;8.60;;;7.90;;
2610;SDS011;5612;51.134;17.058;2023-07-13T03:51:02;9.23;;;8.43;;
2610;SDS011;5612;51.134;17.058;2023-07-13T03:53:30;8.90;;;8.10;;
2610;SDS011;5612;51.134;17.058;2023-07-13T03:55:59;9.63;;;8.63;;
2610;SDS011;5612;51.134;17.058;2023-07-13T03:58:30;8.97;;;8.30;;
2610;SDS011;5612;51.134;17.058;2023-07-13T04:01:00;9.57;;;8.60;;
2610;SDS011;5612;51.134;17.058;2023-07-13T04:03:32;9.43;;;8.53;;
2610;SDS011;5612;51.134;17.058;2023-07-13T04:06:03;10.43;;;7.80;;
2610;SDS011;5612;51.134;17.058;2023-07-13T04:08:34;9.07;;;8.17;;
2610;SDS011;5612;51.134;17.058;2023-07-13T04:11:04;8.60;;;6.80;;
2610;SDS011;5612;51.134;17.058;2023-07-13T04:13:33;8.33;;;7.63;;
2610;SDS011;5612;51.134;17.058;2023-07-13T04:16:02;9.10;;;8.20;;
2610;SDS011;5612;51.134;17.058;2023-07-13T04:18:31;9.17;;;8.37;;
2610;SDS011;5612;51.134;17.058;2023-07-13T04:21:00;7.73;;;7.10;;
2610;SDS011;5612;51.134;17.058;2023-07-13T04:23:30;8.83;;;8.03;;
2610;SDS011;5612;51.134;17.058;2023-07-13T04:25:59;10.33;;;9.43;;
2610;SDS011;5612;51.134;17.058;2023-07-13T04:28:27;9.63;;;8.60;;
2610;SDS011;5612;51.134;17.058;2023-07-13T04:30:57;10.20;;;7.77;;
2610;SDS011;5612;51.134;17.058;2023-07-13T04:33:26;6.40;;;5.80;;
2610;SDS011;5612;51.134;17.058;2023-07-13T04:35:55;6.03;;;5.50;;
2610;SDS011;5612;51.134;17.058;2023-07-13T04:38:26;5.77;;;5.37;;
2610;SDS011;5612;51.134;17.058;2023-07-13T04:40:58;5.80;;;5.33;;
2610;SDS011;5612;51.134;17.058;2023-07-13T04:43:28;5.70;;;5.23;;
2610;SDS011;5612;51.134;17.058;2023-07-13T04:46:02;4.80;;;4.40;;
2610;SDS011;5612;51.134;17.058;2023-07-13T04:48:32;5.97;;;5.60;;
2610;SDS011;5612;51.134;17.058;2023-07-13T04:51:02;5.63;;;5.20;;
2610;SDS011;5612;51.134;17.058;2023-07-13T04:53:31;7.27;;;6.67;;
2610;SDS011;5612;51.134;17.058;2023-07-13T04:56:02;6.30;;;5.50;;
2610;SDS011;5612;51.134;17.058;2023-07-13T04:58:32;11.20;;;7.10;;
2610;SDS011;5612;51.134;17.058;2023-07-13T05:01:02;8.87;;;6.10;;
2610;SDS011;5612;51.134;17.058;2023-07-13T05:03:32;6.93;;;6.40;;
2610;SDS011;5612;51.134;17.058;2023-07-13T05:06:03;6.53;;;6.13;;
2610;SDS011;5612;51.134;17.058;2023-07-13T05:08:33;5.60;;;5.10;;
2610;SDS011;5612;51.134;17.058;2023-07-13T05:11:04;7.00;;;6.30;;
2610;SDS011;5612;51.134;17.058;2023-07-13T05:13:34;6.27;;;5.73;;
2610;SDS011;5612;51.134;17.058;2023-07-13T05:16:03;6.10;;;5.60;;
2610;SDS011;5612;51.134;17.058;2023-07-13T05:18:34;5.90;;;5.50;;
2610;SDS011;5612;51.134;17.058;2023-07-13T05:21:08;5.40;;;5.00;;
2610;SDS011;5612;51.134;17.058;2023-07-13T05:23:38;6.63;;;5.97;;
2610;SDS011;5612;51.134;17.058;2023-07-13T05:26:10;6.83;;;5.90;;
2610;SDS011;5612;51.134;17.058;2023-07-13T05:28:40;17.17;;;6.70;;
2610;SDS011;5612;51.134;17.058;2023-07-13T05:31:19;5.27;;;4.87;;
2610;SDS011;5612;51.134;17.058;2023-07-13T05:33:56;6.10;;;5.50;;
2610;SDS011;5612;51.134;17.058;2023-07-13T05:36:25;5.90;;;5.50;;
2610;SDS011;5612;51.134;17.058;2023-07-13T05:38:54;5.90;;;4.97;;
2610;SDS011;5612;51.134;17.058;2023-07-13T05:41:25;5.23;;;4.93;;
2610;SDS011;5612;51.134;17.058;2023-07-13T05:43:55;4.93;;;4.57;;
2610;SDS011;5612;51.134;17.058;2023-07-13T05:46:31;4.93;;;4.67;;
2610;SDS011;5612;51.134;17.058;2023-07-13T05:49:09;5.20;;;4.80;;
2610;SDS011;5612;51.134;17.058;2023-07-13T05:51:42;5.40;;;4.57;;
2610;SDS011;5612;51.134;17.058;2023-07-13T05:54:37;4.73;;;4.40;;
2610;SDS011;5612;51.134;17.058;2023-07-13T05:57:26;5.97;;;5.10;;
2610;SDS011;5612;51.134;17.058;2023-07-13T05:59:57;4.73;;;4.30;;
2610;SDS011;5612;51.134;17.058;2023-07-13T06:02:29;4.23;;;3.83;;
2610;SDS011;5612;51.134;17.058;2023-07-13T06:04:58;5.10;;;4.77;;
2610;SDS011;5612;51.134;17.058;2023-07-13T06:07:27;4.20;;;3.90;;
2610;SDS011;5612;51.134;17.058;2023-07-13T06:09:56;4.30;;;4.00;;
2610;SDS011;5612;51.134;17.058;2023-07-13T06:12:29;4.70;;;4.30;;
2610;SDS011;5612;51.134;17.058;2023-07-13T06:14:58;4.57;;;4.27;;
2610;SDS011;5612;51.134;17.058;2023-07-13T06:17:29;5.17;;;3.90;;
2610;SDS011;5612;51.134;17.058;2023-07-13T06:19:58;4.00;;;3.80;;
2610;SDS011;5612;51.134;17.058;2023-07-13T06:22:30;9.00;;;3.90;;
2610;SDS011;5612;51.134;17.058;2023-07-13T06:25:01;4.97;;;4.47;;
2610;SDS011;5612;51.134;17.058;2023-07-13T06:27:36;6.13;;;4.10;;
2610;SDS011;5612;51.134;17.058;2023-07-13T06:30:08;6.90;;;6.20;;
2610;SDS011;5612;51.134;17.058;2023-07-13T06:32:42;3.70;;;3.47;;
2610;SDS011;5612;51.134;17.058;2023-07-13T06:35:13;4.00;;;3.67;;
2610;SDS011;5612;51.134;17.058;2023-07-13T06:37:43;4.40;;;3.90;;
2610;SDS011;5612;51.134;17.058;2023-07-13T06:40:19;3.80;;;3.50;;
2610;SDS011;5612;51.134;17.058;2023-07-13T06:42:52;3.70;;;3.50;;
2610;SDS011;5612;51.134;17.058;2023-07-13T06:45:21;3.80;;;3.50;;
2610;SDS011;5612;51.134;17.058;2023-07-13T06:47:54;8.07;;;7.40;;
2610;SDS011;5612;51.134;17.058;2023-07-13T06:50:24;3.60;;;3.30;;
2610;SDS011;5612;51.134;17.058;2023-07-13T06:52:59;4.50;;;4.10;;
2610;SDS011;5612;51.134;17.058;2023-07-13T06:55:39;4.43;;;4.17;;
2610;SDS011;5612;51.134;17.058;2023-07-13T06:58:57;5.00;;;4.57;;
2610;SDS011;5612;51.134;17.058;2023-07-13T07:01:27;7.87;;;5.20;;
2610;SDS011;5612;51.134;17.058;2023-07-13T07:04:06;5.67;;;4.83;;
2610;SDS011;5612;51.134;17.058;2023-07-13T07:06:36;5.80;;;5.33;;
2610;SDS011;5612;51.134;17.058;2023-07-13T07:09:27;5.73;;;5.23;;
2610;SDS011;5612;51.134;17.058;2023-07-13T07:12:05;6.53;;;5.33;;
2610;SDS011;5612;51.134;17.058;2023-07-13T07:14:38;5.73;;;5.33;;
2610;SDS011;5612;51.134;17.058;2023-07-13T07:17:19;7.83;;;6.30;;
2610;SDS011;5612;51.134;17.058;2023-07-13T07:19:55;7.13;;;6.53;;
2610;SDS011;5612;51.134;17.058;2023-07-13T07:22:26;8.30;;;7.60;;
2610;SDS011;5612;51.134;17.058;2023-07-13T07:25:02;8.53;;;7.80;;
2610;SDS011;5612;51.134;17.058;2023-07-13T07:27:39;8.80;;;8.10;;
2610;SDS011;5612;51.134;17.058;2023-07-13T07:30:19;9.57;;;8.77;;
2610;SDS011;5612;51.134;17.058;2023-07-13T07:32:51;8.23;;;7.50;;
2610;SDS011;5612;51.134;17.058;2023-07-13T07:35:23;7.70;;;7.10;;
2610;SDS011;5612;51.134;17.058;2023-07-13T07:37:52;9.00;;;8.30;;
2610;SDS011;5612;51.134;17.058;2023-07-13T07:40:21;8.80;;;8.10;;
2610;SDS011;5612;51.134;17.058;2023-07-13T07:49:51;8.07;;;7.43;;
2610;SDS011;5612;51.134;17.058;2023-07-13T07:52:30;9.40;;;8.50;;
2610;SDS011;5612;51.134;17.058;2023-07-13T07:55:00;9.40;;;8.10;;
2610;SDS011;5612;51.134;17.058;2023-07-13T07:57:32;8.77;;;7.93;;
2610;SDS011;5612;51.134;17.058;2023-07-13T08:00:04;8.60;;;7.80;;
2610;SDS011;5612;51.134;17.058;2023-07-13T08:02:38;8.20;;;7.40;;
2610;SDS011;5612;51.134;17.058;2023-07-13T08:05:28;8.30;;;7.60;;
2610;SDS011;5612;51.134;17.058;2023-07-13T08:07:59;6.70;;;6.10;;
2610;SDS011;5612;51.134;17.058;2023-07-13T08:10:28;6.27;;;5.83;;
2610;SDS011;5612;51.134;17.058;2023-07-13T08:12:57;7.50;;;6.90;;
2610;SDS011;5612;51.134;17.058;2023-07-13T08:15:29;6.37;;;5.20;;
2610;SDS011;5612;51.134;17.058;2023-07-13T08:18:00;5.00;;;4.70;;
2610;SDS011;5612;51.134;17.058;2023-07-13T08:20:29;5.80;;;5.30;;
2610;SDS011;5612;51.134;17.058;2023-07-13T08:22:59;4.70;;;4.40;;
2610;SDS011;5612;51.134;17.058;2023-07-13T08:25:28;5.00;;;4.60;;
2610;SDS011;5612;51.134;17.058;2023-07-13T08:27:57;5.27;;;4.87;;
2610;SDS011;5612;51.134;17.058;2023-07-13T08:30:26;5.20;;;4.80;;
2610;SDS011;5612;51.134;17.058;2023-07-13T08:32:55;5.50;;;5.00;;
2610;SDS011;5612;51.134;17.058;2023-07-13T08:35:25;5.23;;;4.73;;
2610;SDS011;5612;51.134;17.058;2023-07-13T08:37:54;4.73;;;4.43;;
2610;SDS011;5612;51.134;17.058;2023-07-13T08:40:23;4.33;;;4.03;;
2610;SDS011;5612;51.134;17.058;2023-07-13T08:42:54;5.30;;;4.90;;
2610;SDS011;5612;51.134;17.058;2023-07-13T08:45:27;6.23;;;5.70;;
2610;SDS011;5612;51.134;17.058;2023-07-13T08:48:03;5.63;;;5.13;;
2610;SDS011;5612;51.134;17.058;2023-07-13T08:50:46;5.73;;;5.17;;
2610;SDS011;5612;51.134;17.058;2023-07-13T08:53:30;5.67;;;5.17;;
2610;SDS011;5612;51.134;17.058;2023-07-13T08:56:03;5.03;;;4.63;;
2610;SDS011;5612;51.134;17.058;2023-07-13T08:58:35;6.20;;;5.77;;
2610;SDS011;5612;51.134;17.058;2023-07-13T09:01:08;4.93;;;4.60;;
2610;SDS011;5612;51.134;17.058;2023-07-13T09:03:46;5.37;;;4.87;;
2610;SDS011;5612;51.134;17.058;2023-07-13T09:06:29;5.50;;;5.10;;
2610;SDS011;5612;51.134;17.058;2023-07-13T09:09:05;8.57;;;5.73;;
2610;SDS011;5612;51.134;17.058;2023-07-13T09:11:42;4.53;;;4.23;;
2610;SDS011;5612;51.134;17.058;2023-07-13T09:14:36;4.93;;;4.63;;
2610;SDS011;5612;51.134;17.058;2023-07-13T09:17:11;4.90;;;4.40;;
2610;SDS011;5612;51.134;17.058;2023-07-13T09:19:44;5.40;;;5.10;;
2610;SDS011;5612;51.134;17.058;2023-07-13T09:22:19;5.03;;;4.57;;
2610;SDS011;5612;51.134;17.058;2023-07-13T09:24:52;4.43;;;4.00;;
2610;SDS011;5612;51.134;17.058;2023-07-13T09:27:27;4.90;;;4.50;;
2610;SDS011;5612;51.134;17.058;2023-07-13T09:30:01;5.17;;;4.60;;
2610;SDS011;5612;51.134;17.058;2023-07-13T09:32:39;4.40;;;4.00;;
2610;SDS011;5612;51.134;17.058;2023-07-13T09:35:10;4.23;;;3.83;;
2610;SDS011;5612;51.134;17.058;2023-07-13T09:37:42;3.90;;;3.60;;
2610;SDS011;5612;51.134;17.058;2023-07-13T09:40:13;4.53;;;4.23;;
2610;SDS011;5612;51.134;17.058;2023-07-13T09:42:50;3.53;;;3.33;;
2610;SDS011;5612;51.134;17.058;2023-07-13T09:45:26;4.20;;;3.80;;
2610;SDS011;5612;51.134;17.058;2023-07-13T09:47:59;8.23;;;4.00;;
2610;SDS011;5612;51.134;17.058;2023-07-13T09:50:32;4.60;;;4.20;;
2610;SDS011;5612;51.134;17.058;2023-07-13T09:53:02;3.70;;;3.40;;
2610;SDS011;5612;51.134;17.058;2023-07-13T09:55:32;3.63;;;3.40;;
2610;SDS011;5612;51.134;17.058;2023-07-13T09:58:03;3.40;;;3.20;;
2610;SDS011;5612;51.134;17.058;2023-07-13T10:00:33;3.47;;;3.17;;
2610;SDS011;5612;51.134;17.058;2023-07-13T10:03:03;5.13;;;3.17;;
2610;SDS011;5612;51.134;17.058;2023-07-13T10:05:40;3.03;;;2.70;;
2610;SDS011;5612;51.134;17.058;2023-07-13T10:08:19;2.67;;;2.47;;
2610;SDS011;5612;51.134;17.058;2023-07-13T10:10:57;2.40;;;2.03;;
2610;SDS011;5612;51.134;17.058;2023-07-13T10:13:29;2.70;;;2.50;;
2610;SDS011;5612;51.134;17.058;2023-07-13T10:16:04;3.03;;;2.03;;
2610;SDS011;5612;51.134;17.058;2023-07-13T10:18:38;3.85;;;2.50;;
2610;SDS011;5612;51.134;17.058;2023-07-13T10:21:13;2.88;;;2.30;;
2610;SDS011;5612;51.134;17.058;2023-07-13T10:23:49;1.95;;;1.85;;
2610;SDS011;5612;51.134;17.058;2023-07-13T10:26:23;1.60;;;1.60;;
2610;SDS011;5612;51.134;17.058;2023-07-13T10:28:59;1.63;;;1.52;;
2610;SDS011;5612;51.134;17.058;2023-07-13T10:31:31;3.10;;;2.60;;
2610;SDS011;5612;51.134;17.058;2023-07-13T10:34:02;2.90;;;2.40;;
2610;SDS011;5612;51.134;17.058;2023-07-13T10:36:33;2.20;;;2.10;;
2610;SDS011;5612;51.134;17.058;2023-07-13T10:39:13;2.20;;;2.10;;
2610;SDS011;5612;51.134;17.058;2023-07-13T10:41:46;4.05;;;3.75;;
2610;SDS011;5612;51.134;17.058;2023-07-13T10:44:19;3.40;;;3.10;;
2610;SDS011;5612;51.134;17.058;2023-07-13T10:46:56;1.70;;;1.60;;
2610;SDS011;5612;51.134;17.058;2023-07-13T10:49:27;2.03;;;1.90;;
2610;SDS011;5612;51.134;17.058;2023-07-13T10:51:59;2.35;;;2.25;;
2610;SDS011;5612;51.134;17.058;2023-07-13T10:54:32;2.85;;;2.35;;
2610;SDS011;5612;51.134;17.058;2023-07-13T10:57:14;3.13;;;2.30;;
2610;SDS011;5612;51.134;17.058;2023-07-13T10:59:49;2.35;;;1.98;;
2610;SDS011;5612;51.134;17.058;2023-07-13T11:02:43;2.30;;;2.20;;
2610;SDS011;5612;51.134;17.058;2023-07-13T11:05:26;2.55;;;1.67;;
2610;SDS011;5612;51.134;17.058;2023-07-13T11:08:02;2.00;;;1.73;;
2610;SDS011;5612;51.134;17.058;2023-07-13T11:10:49;1.48;;;1.38;;
2610;SDS011;5612;51.134;17.058;2023-07-13T11:16:35;1.98;;;1.77;;
2610;SDS011;5612;51.134;17.058;2023-07-13T11:19:26;2.00;;;1.90;;
2610;SDS011;5612;51.134;17.058;2023-07-13T11:22:15;2.10;;;2.00;;
2610;SDS011;5612;51.134;17.058;2023-07-13T11:24:56;1.95;;;1.85;;
2610;SDS011;5612;51.134;17.058;2023-07-13T11:27:38;2.35;;;2.15;;
2610;SDS011;5612;51.134;17.058;2023-07-13T11:30:23;2.42;;;2.22;;
2610;SDS011;5612;51.134;17.058;2023-07-13T11:33:02;2.33;;;2.23;;
2610;SDS011;5612;51.134;17.058;2023-07-13T11:35:41;3.97;;;2.10;;
2610;SDS011;5612;51.134;17.058;2023-07-13T11:38:15;2.10;;;2.00;;
2610;SDS011;5612;51.134;17.058;2023-07-13T11:40:47;2.50;;;2.40;;
2610;SDS011;5612;51.134;17.058;2023-07-13T11:43:23;1.90;;;1.80;;
2610;SDS011;5612;51.134;17.058;2023-07-13T11:45:52;2.03;;;1.83;;
2610;SDS011;5612;51.134;17.058;2023-07-13T11:48:22;2.20;;;2.10;;
2610;SDS011;5612;51.134;17.058;2023-07-13T11:50:53;2.50;;;2.40;;
2610;SDS011;5612;51.134;17.058;2023-07-13T11:53:26;2.40;;;2.20;;
2610;SDS011;5612;51.134;17.058;2023-07-13T11:55:57;2.57;;;2.40;;
2610;SDS011;5612;51.134;17.058;2023-07-13T11:58:28;2.47;;;2.27;;
2610;SDS011;5612;51.134;17.058;2023-07-13T12:00:58;2.20;;;2.10;;
2610;SDS011;5612;51.134;17.058;2023-07-13T12:03:32;2.17;;;2.00;;
2610;SDS011;5612;51.134;17.058;2023-07-13T12:06:03;2.30;;;2.20;;
2610;SDS011;5612;51.134;17.058;2023-07-13T12:08:37;2.60;;;2.40;;
2610;SDS011;5612;51.134;17.058;2023-07-13T12:11:12;2.53;;;2.30;;
2610;SDS011;5612;51.134;17.058;2023-07-13T12:13:46;2.37;;;2.17;;
2610;SDS011;5612;51.134;17.058;2023-07-13T12:16:16;2.13;;;2.03;;
2610;SDS011;5612;51.134;17.058;2023-07-13T12:18:51;4.20;;;2.00;;
2610;SDS011;5612;51.134;17.058;2023-07-13T12:21:22;2.97;;;1.70;;
2610;SDS011;5612;51.134;17.058;2023-07-13T12:23:57;1.70;;;1.60;;
2610;SDS011;5612;51.134;17.058;2023-07-13T12:26:28;1.80;;;1.70;;
2610;SDS011;5612;51.134;17.058;2023-07-13T12:29:00;1.73;;;1.63;;
2610;SDS011;5612;51.134;17.058;2023-07-13T12:31:35;1.58;;;1.45;;
2610;SDS011;5612;51.134;17.058;2023-07-13T12:34:10;1.80;;;1.70;;
2610;SDS011;5612;51.134;17.058;2023-07-13T12:36:41;2.40;;;1.58;;
2610;SDS011;5612;51.134;17.058;2023-07-13T12:39:17;1.55;;;1.45;;
2610;SDS011;5612;51.134;17.058;2023-07-13T12:41:48;1.40;;;1.40;;
2610;SDS011;5612;51.134;17.058;2023-07-13T12:44:26;1.70;;;1.60;;
2610;SDS011;5612;51.134;17.058;2023-07-13T12:46:58;2.97;;;2.05;;
2610;SDS011;5612;51.134;17.058;2023-07-13T12:49:32;2.22;;;1.98;;
2610;SDS011;5612;51.134;17.058;2023-07-13T12:52:03;1.75;;;1.65;;
2610;SDS011;5612;51.134;17.058;2023-07-13T12:54:41;4.85;;;2.05;;
2610;SDS011;5612;51.134;17.058;2023-07-13T12:57:25;2.47;;;1.50;;
2610;SDS011;5612;51.134;17.058;2023-07-13T12:59:55;2.30;;;1.65;;
2610;SDS011;5612;51.134;17.058;2023-07-13T13:02:27;1.80;;;1.45;;
2610;SDS011;5612;51.134;17.058;2023-07-13T13:04:58;2.22;;;1.75;;
2610;SDS011;5612;51.134;17.058;2023-07-13T13:07:27;1.50;;;1.40;;
2610;SDS011;5612;51.134;17.058;2023-07-13T13:09:56;1.80;;;1.70;;
2610;SDS011;5612;51.134;17.058;2023-07-13T13:12:25;1.40;;;1.30;;
2610;SDS011;5612;51.134;17.058;2023-07-13T13:14:56;2.00;;;1.63;;
2610;SDS011;5612;51.134;17.058;2023-07-13T13:17:27;2.97;;;1.58;;
2610;SDS011;5612;51.134;17.058;2023-07-13T13:19:59;2.10;;;1.63;;
2610;SDS011;5612;51.134;17.058;2023-07-13T13:22:29;1.90;;;1.80;;
2610;SDS011;5612;51.134;17.058;2023-07-13T13:24:59;1.92;;;1.63;;
2610;SDS011;5612;51.134;17.058;2023-07-13T13:27:32;3.92;;;2.00;;
2610;SDS011;5612;51.134;17.058;2023-07-13T13:30:05;1.90;;;1.50;;
2610;SDS011;5612;51.134;17.058;2023-07-13T13:32:39;3.28;;;1.52;;
2610;SDS011;5612;51.134;17.058;2023-07-13T13:35:12;2.22;;;1.40;;
2610;SDS011;5612;51.134;17.058;2023-07-13T13:37:42;1.80;;;1.70;;
2610;SDS011;5612;51.134;17.058;2023-07-13T13:40:14;1.38;;;1.38;;
2610;SDS011;5612;51.134;17.058;2023-07-13T13:42:45;1.83;;;1.30;;
2610;SDS011;5612;51.134;17.058;2023-07-13T13:45:17;1.60;;;1.50;;
2610;SDS011;5612;51.134;17.058;2023-07-13T13:47:49;2.15;;;1.55;;
2610;SDS011;5612;51.134;17.058;2023-07-13T13:50:20;1.80;;;1.50;;
2610;SDS011;5612;51.134;17.058;2023-07-13T13:52:52;1.40;;;1.30;;
2610;SDS011;5612;51.134;17.058;2023-07-13T13:55:22;2.58;;;1.40;;
2610;SDS011;5612;51.134;17.058;2023-07-13T13:57:51;2.33;;;1.70;;
2610;SDS011;5612;51.134;17.058;2023-07-13T14:00:22;1.88;;;1.73;;
2610;SDS011;5612;51.134;17.058;2023-07-13T14:02:51;3.20;;;1.77;;
2610;SDS011;5612;51.134;17.058;2023-07-13T14:05:24;1.60;;;1.48;;
2610;SDS011;5612;51.134;17.058;2023-07-13T14:07:54;1.65;;;1.50;;
2610;SDS011;5612;51.134;17.058;2023-07-13T14:10:24;1.98;;;1.88;;
2610;SDS011;5612;51.134;17.058;2023-07-13T14:12:55;2.95;;;1.38;;
2610;SDS011;5612;51.134;17.058;2023-07-13T14:15:27;2.13;;;1.40;;
2610;SDS011;5612;51.134;17.058;2023-07-13T14:17:57;1.73;;;1.58;;
2610;SDS011;5612;51.134;17.058;2023-07-13T14:20:28;3.88;;;1.30;;
2610;SDS011;5612;51.134;17.058;2023-07-13T14:22:57;2.65;;;1.60;;
2610;SDS011;5612;51.134;17.058;2023-07-13T14:25:26;1.30;;;1.25;;
2610;SDS011;5612;51.134;17.058;2023-07-13T14:27:56;1.80;;;1.42;;
2610;SDS011;5612;51.134;17.058;2023-07-13T14:30:28;1.63;;;1.52;;
2610;SDS011;5612;51.134;17.058;2023-07-13T14:32:57;1.83;;;1.73;;
2610;SDS011;5612;51.134;17.058;2023-07-13T14:35:26;1.55;;;1.45;;
2610;SDS011;5612;51.134;17.058;2023-07-13T14:37:56;3.03;;;1.80;;
2610;SDS011;5612;51.134;17.058;2023-07-13T14:40:29;2.55;;;1.55;;
2610;SDS011;5612;51.134;17.058;2023-07-13T14:42:59;1.40;;;1.35;;
2610;SDS011;5612;51.134;17.058;2023-07-13T14:45:31;2.00;;;1.58;;
2610;SDS011;5612;51.134;17.058;2023-07-13T14:48:00;1.65;;;1.55;;
2610;SDS011;5612;51.134;17.058;2023-07-13T14:50:30;2.35;;;1.70;;
2610;SDS011;5612;51.134;17.058;2023-07-13T14:53:02;1.50;;;1.40;;
2610;SDS011;5612;51.134;17.058;2023-07-13T14:55:31;1.48;;;1.38;;
2610;SDS011;5612;51.134;17.058;2023-07-13T14:58:00;1.50;;;1.40;;
2610;SDS011;5612;51.134;17.058;2023-07-13T15:00:29;1.92;;;1.50;;
2610;SDS011;5612;51.134;17.058;2023-07-13T15:03:01;2.10;;;1.58;;
2610;SDS011;5612;51.134;17.058;2023-07-13T15:05:33;2.08;;;1.73;;
2610;SDS011;5612;51.134;17.058;2023-07-13T15:08:02;1.63;;;1.53;;
2610;SDS011;5612;51.134;17.058;2023-07-13T15:10:32;1.90;;;1.70;;
2610;SDS011;5612;51.134;17.058;2023-07-13T15:13:12;2.00;;;1.80;;
2610;SDS011;5612;51.134;17.058;2023-07-13T15:15:47;2.20;;;1.80;;
2610;SDS011;5612;51.134;17.058;2023-07-13T15:18:19;9.33;;;3.30;;
2610;SDS011;5612;51.134;17.058;2023-07-13T15:20:50;1.43;;;1.27;;
2610;SDS011;5612;51.134;17.058;2023-07-13T15:23:22;1.70;;;1.60;;
2610;SDS011;5612;51.134;17.058;2023-07-13T15:25:52;2.90;;;1.77;;
2610;SDS011;5612;51.134;17.058;2023-07-13T15:28:21;2.93;;;1.60;;
2610;SDS011;5612;51.134;17.058;2023-07-13T15:30:52;3.57;;;1.73;;
2610;SDS011;5612;51.134;17.058;2023-07-13T15:33:22;1.73;;;1.63;;
2610;SDS011;5612;51.134;17.058;2023-07-13T15:35:52;1.83;;;1.73;;
2610;SDS011;5612;51.134;17.058;2023-07-13T15:38:23;1.80;;;1.70;;
2610;SDS011;5612;51.134;17.058;2023-07-13T15:40:53;2.23;;;2.10;;
2610;SDS011;5612;51.134;17.058;2023-07-13T15:43:23;2.60;;;2.40;;